createdAt,value
2023-03-11T00:00:28.828Z,14.97
2023-03-11T00:02:57.484Z,14.95
2023-03-11T00:05:28.502Z,14.96
2023-03-11T00:07:55.462Z,14.88
2023-03-11T00:10:30.147Z,14.94
2023-03-11T00:12:58.044Z,14.78
2023-03-11T00:15:25.248Z,14.85
2023-03-11T00:17:52.098Z,14.92
2023-03-11T00:20:25.431Z,14.76
2023-03-11T00:22:52.792Z,14.96
2023-03-11T00:25:20.012Z,15.06
2023-03-11T00:27:46.944Z,14.88
2023-03-11T00:30:14.570Z,15.13
2023-03-11T00:32:41.435Z,15.14
2023-03-11T00:35:09.134Z,15.04
2023-03-11T00:37:35.963Z,15.17
2023-03-11T00:40:02.988Z,15.20
2023-03-11T00:42:29.819Z,15.09
2023-03-11T00:44:57.269Z,15.22
2023-03-11T00:47:24.124Z,15.25
2023-03-11T00:49:51.008Z,15.24
2023-03-11T00:52:17.956Z,15.24
2023-03-11T00:54:46.350Z,14.83
2023-03-11T00:57:13.135Z,15.14
2023-03-11T00:59:39.978Z,15.12
2023-03-11T01:02:06.752Z,15.24
2023-03-11T01:04:33.572Z,15.25
2023-03-11T01:07:00.456Z,15.22
2023-03-11T01:09:27.301Z,15.24
2023-03-11T01:11:54.482Z,15.25
2023-03-11T01:14:21.375Z,15.25
2023-03-11T01:16:48.138Z,15.20
2023-03-11T01:19:15.115Z,15.26
2023-03-11T01:21:43.304Z,14.85
2023-03-11T01:24:10.071Z,15.17
2023-03-11T01:26:36.986Z,15.30
2023-03-11T01:29:04.056Z,15.21
2023-03-11T01:31:30.899Z,15.15
2023-03-11T01:33:57.913Z,15.33
2023-03-11T01:36:24.714Z,15.20
2023-03-11T01:38:51.520Z,15.35
2023-03-11T01:41:18.376Z,15.13
2023-03-11T01:43:45.173Z,15.39
2023-03-11T01:46:22.013Z,15.43
2023-03-11T01:48:50.678Z,14.98
2023-03-11T01:51:39.843Z,15.41
2023-03-11T01:54:33.786Z,15.41
2023-03-11T01:57:01.218Z,15.29
2023-03-11T01:59:31.176Z,15.28
2023-03-11T02:02:20.957Z,15.38
2023-03-11T02:04:47.801Z,15.25
2023-03-11T02:07:14.849Z,15.20
2023-03-11T02:09:42.110Z,15.36
2023-03-11T02:12:10.064Z,15.29
2023-03-11T02:14:36.827Z,15.21
2023-03-11T02:17:03.753Z,15.40
2023-03-11T02:19:50.814Z,15.43
2023-03-11T02:22:17.729Z,15.20
2023-03-11T02:25:02.630Z,15.40
2023-03-11T02:27:29.836Z,15.30
2023-03-11T02:29:57.045Z,15.29
2023-03-11T02:32:23.969Z,15.39
2023-03-11T02:34:50.767Z,15.39
2023-03-11T02:37:17.842Z,15.35
2023-03-11T02:39:49.692Z,15.39
2023-03-11T02:42:26.749Z,15.39
2023-03-11T02:45:14.510Z,15.39
2023-03-11T02:47:41.521Z,15.21
2023-03-11T02:50:09.927Z,15.35
2023-03-11T02:52:36.724Z,15.26
2023-03-11T02:55:04.021Z,15.35
2023-03-11T02:57:30.861Z,15.37
2023-03-11T02:59:57.707Z,15.37
2023-03-11T03:02:24.604Z,15.11
2023-03-11T03:04:51.596Z,15.33
2023-03-11T03:07:18.445Z,15.19
2023-03-11T03:09:45.200Z,15.24
2023-03-11T03:12:12.234Z,15.30
2023-03-11T03:14:39.027Z,15.20
2023-03-11T03:17:06.058Z,15.31
2023-03-11T03:19:33.028Z,15.14
2023-03-11T03:21:59.871Z,15.32
2023-03-11T03:24:26.669Z,15.19
2023-03-11T03:26:53.754Z,15.34
2023-03-11T03:29:20.779Z,15.34
2023-03-11T03:31:47.622Z,15.34
2023-03-11T03:34:14.498Z,15.15
2023-03-11T03:36:41.243Z,15.22
2023-03-11T03:39:08.080Z,15.36
2023-03-11T03:41:35.170Z,14.87
2023-03-11T03:44:02.072Z,15.36
2023-03-11T03:46:28.997Z,15.22
2023-03-11T03:48:56.025Z,15.22
2023-03-11T03:51:22.804Z,15.33
2023-03-11T03:53:49.547Z,15.12
2023-03-11T03:56:17.540Z,15.07
2023-03-11T03:58:44.482Z,14.98
2023-03-11T04:01:13.221Z,15.24
2023-03-11T04:03:40.296Z,15.32
2023-03-11T04:06:12.206Z,15.33
2023-03-11T04:08:40.749Z,15.32
2023-03-11T04:11:07.609Z,15.20
2023-03-11T04:13:34.447Z,15.21
2023-03-11T04:16:03.757Z,15.27
2023-03-11T04:18:30.801Z,15.11
2023-03-11T04:20:57.586Z,15.18
2023-03-11T04:23:24.582Z,15.28
2023-03-11T04:25:51.471Z,15.32
2023-03-11T04:28:18.409Z,15.24
2023-03-11T04:30:45.448Z,15.24
2023-03-11T04:33:12.214Z,15.23
2023-03-11T04:35:39.507Z,15.25
2023-03-11T04:38:06.393Z,15.29
2023-03-11T04:40:33.302Z,15.27
2023-03-11T04:43:00.182Z,15.24
2023-03-11T04:45:26.926Z,15.20
2023-03-11T04:47:53.685Z,15.28
2023-03-11T04:50:20.465Z,15.27
2023-03-11T04:52:47.616Z,14.96
2023-03-11T04:55:14.757Z,15.30
2023-03-11T04:57:42.233Z,14.86
2023-03-11T05:00:12.030Z,15.16
2023-03-11T05:02:39.124Z,15.35
2023-03-11T05:05:06.605Z,15.25
2023-03-11T05:07:33.339Z,14.96
2023-03-11T05:10:00.233Z,15.13
2023-03-11T05:12:27.016Z,15.14
2023-03-11T05:14:53.771Z,15.29
2023-03-11T05:17:20.644Z,15.34
2023-03-11T05:19:47.457Z,15.32
2023-03-11T05:22:14.242Z,15.34
2023-03-11T05:24:41.243Z,15.37
2023-03-11T05:27:08.084Z,15.35
2023-03-11T05:29:34.852Z,15.32
2023-03-11T05:32:01.840Z,15.30
2023-03-11T05:34:28.599Z,15.12
2023-03-11T05:36:55.362Z,15.15
2023-03-11T05:39:22.175Z,15.10
2023-03-11T05:41:49.124Z,15.21
2023-03-11T05:44:15.985Z,15.29
2023-03-11T05:46:43.012Z,15.16
2023-03-11T05:49:09.818Z,15.34
2023-03-11T05:51:37.755Z,15.10
2023-03-11T05:54:04.697Z,15.23
2023-03-11T05:56:31.468Z,15.31
2023-03-11T05:58:58.603Z,15.19
2023-03-11T06:01:25.518Z,15.30
2023-03-11T06:03:52.460Z,15.29
2023-03-11T06:06:19.418Z,15.28
2023-03-11T06:08:50.142Z,15.18
2023-03-11T06:11:17.214Z,15.01
2023-03-11T06:13:44.001Z,15.22
2023-03-11T06:16:10.917Z,15.19
2023-03-11T06:18:37.752Z,15.19
2023-03-11T06:21:04.787Z,15.22
2023-03-11T06:23:31.881Z,15.21
2023-03-11T06:26:05.427Z,15.20
2023-03-11T06:28:32.579Z,15.07
2023-03-11T06:31:24.440Z,15.20
2023-03-11T06:33:51.730Z,14.66
2023-03-11T06:36:19.110Z,15.12
2023-03-11T06:38:46.867Z,15.23
2023-03-11T06:41:13.726Z,15.22
2023-03-11T06:43:40.681Z,15.17
2023-03-11T06:46:12.232Z,15.20
2023-03-11T06:48:39.298Z,15.07
2023-03-11T06:51:06.142Z,15.24
2023-03-11T06:53:32.933Z,15.11
2023-03-11T06:56:03.328Z,15.18
2023-03-11T06:58:30.702Z,15.24
2023-03-11T07:01:08.405Z,15.24
2023-03-11T07:03:35.179Z,15.06
2023-03-11T07:06:02.021Z,15.10
2023-03-11T07:08:29.165Z,15.09
2023-03-11T07:11:07.324Z,14.90
2023-03-11T07:13:34.326Z,15.02
2023-03-11T07:16:12.532Z,15.19
2023-03-11T07:18:39.532Z,14.86
2023-03-11T07:21:06.990Z,14.83
2023-03-11T07:23:33.842Z,15.00
2023-03-11T07:26:00.932Z,14.92
2023-03-11T07:28:28.118Z,14.94
2023-03-11T07:30:55.128Z,15.06
2023-03-11T07:33:24.290Z,15.05
2023-03-11T07:35:51.521Z,14.81
2023-03-11T07:38:19.817Z,14.58
2023-03-11T07:40:46.760Z,15.09
2023-03-11T07:43:13.747Z,14.65
2023-03-11T07:45:40.722Z,15.27
2023-03-11T07:48:07.644Z,15.44
2023-03-11T07:50:36.231Z,15.25
2023-03-11T07:53:03.078Z,15.30
2023-03-11T07:55:30.026Z,15.65
2023-03-11T07:57:56.870Z,15.31
2023-03-11T08:00:23.760Z,15.91
2023-03-11T08:02:50.816Z,15.97
2023-03-11T08:05:18.717Z,16.01
2023-03-11T08:07:45.547Z,15.99
2023-03-11T08:10:12.721Z,15.86
2023-03-11T08:12:39.561Z,15.97
2023-03-11T08:15:06.974Z,15.92
2023-03-11T08:17:33.922Z,15.91
2023-03-11T08:20:00.774Z,15.92
2023-03-11T08:22:28.782Z,15.64
2023-03-11T08:24:56.809Z,15.61
2023-03-11T08:27:23.598Z,15.76
2023-03-11T08:29:50.387Z,15.45
2023-03-11T08:32:17.568Z,15.58
2023-03-11T08:34:44.551Z,15.62
2023-03-11T08:37:11.535Z,15.58
2023-03-11T08:39:38.547Z,15.62
2023-03-11T08:42:05.603Z,15.62
2023-03-11T08:44:32.548Z,15.62
2023-03-11T08:47:00.690Z,15.45
2023-03-11T08:49:27.608Z,15.38
2023-03-11T08:51:54.840Z,15.65
2023-03-11T08:54:21.931Z,15.69
2023-03-11T08:56:49.035Z,15.10
2023-03-11T08:59:15.861Z,15.64
2023-03-11T09:01:43.041Z,15.77
2023-03-11T09:04:09.984Z,15.62
2023-03-11T09:06:36.867Z,15.71
2023-03-11T09:09:04.220Z,15.79
2023-03-11T09:11:31.030Z,15.89
2023-03-11T09:13:57.963Z,15.71
2023-03-11T09:16:25.347Z,15.94
2023-03-11T09:18:52.256Z,16.05
2023-03-11T09:21:19.068Z,16.19
2023-03-11T09:23:45.999Z,16.27
2023-03-11T09:26:13.068Z,16.44
2023-03-11T09:28:40.692Z,16.51
2023-03-11T09:31:07.635Z,16.36
2023-03-11T09:33:39.304Z,16.38
2023-03-11T09:36:07.355Z,16.49
2023-03-11T09:38:34.230Z,16.51
2023-03-11T09:41:04.340Z,16.52
2023-03-11T09:43:40.509Z,16.83
2023-03-11T09:46:13.504Z,16.94
2023-03-11T09:49:05.706Z,16.81
2023-03-11T09:51:35.247Z,16.70
2023-03-11T09:54:14.500Z,16.68
2023-03-11T09:56:44.377Z,16.80
2023-03-11T09:59:20.886Z,16.76
2023-03-11T10:01:49.130Z,16.74
2023-03-11T10:04:19.056Z,16.71
2023-03-11T10:06:46.632Z,16.67
2023-03-11T10:09:22.420Z,16.67
2023-03-11T10:12:24.492Z,16.49
2023-03-11T10:15:12.689Z,16.69
2023-03-11T10:17:53.353Z,16.75
2023-03-11T10:20:39.034Z,16.25
2023-03-11T10:23:14.682Z,16.73
2023-03-11T10:26:00.161Z,16.72
2023-03-11T10:28:37.732Z,16.54
2023-03-11T10:31:25.239Z,16.46
2023-03-11T10:34:01.570Z,16.68
2023-03-11T10:36:54.508Z,16.83
2023-03-11T10:39:21.560Z,16.71
2023-03-11T10:42:00.603Z,16.79
2023-03-11T10:44:41.306Z,16.85
2023-03-11T10:47:23.144Z,16.83
2023-03-11T10:49:50.460Z,16.94
2023-03-11T10:52:17.252Z,16.92
2023-03-11T10:54:48.298Z,16.88
2023-03-11T10:57:33.620Z,16.89
2023-03-11T11:00:12.680Z,16.40
2023-03-11T11:02:43.261Z,16.79
2023-03-11T11:05:16.586Z,16.84
2023-03-11T11:07:50.745Z,16.78
2023-03-11T11:10:17.786Z,16.87
2023-03-11T11:13:13.602Z,16.85
2023-03-11T11:15:41.830Z,16.66
2023-03-11T11:18:17.900Z,16.84
2023-03-11T11:21:03.966Z,16.81
2023-03-11T11:23:35.101Z,16.48
2023-03-11T11:26:04.913Z,16.79
2023-03-11T11:28:33.037Z,16.65
2023-03-11T11:31:04.941Z,16.76
2023-03-11T11:33:34.049Z,16.57
2023-03-11T11:36:03.146Z,16.90
2023-03-11T11:38:30.554Z,16.91
2023-03-11T11:41:00.232Z,16.77
2023-03-11T11:43:47.072Z,17.04
2023-03-11T11:46:37.823Z,17.03
2023-03-11T11:49:13.726Z,17.07
2023-03-11T11:51:43.302Z,16.77
2023-03-11T11:54:43.656Z,17.07
2023-03-11T11:57:15.565Z,17.04
2023-03-11T11:59:43.025Z,17.02
2023-03-11T12:02:38.121Z,17.08
2023-03-11T12:05:09.773Z,17.11
2023-03-11T12:08:04.844Z,17.12
2023-03-11T12:10:40.229Z,17.04
2023-03-11T12:13:29.306Z,17.15
2023-03-11T12:16:12.820Z,17.19
2023-03-11T12:19:11.008Z,17.22
2023-03-11T12:22:02.654Z,17.21
2023-03-11T12:24:59.904Z,17.20
2023-03-11T12:27:45.495Z,16.94
2023-03-11T12:30:33.035Z,17.01
2023-03-11T12:33:02.604Z,17.03
2023-03-11T12:35:33.342Z,17.19
2023-03-11T12:38:12.352Z,17.17
2023-03-11T12:40:49.864Z,17.16
2023-03-11T12:43:30.259Z,17.18
2023-03-11T12:46:00.911Z,16.93
2023-03-11T12:48:27.554Z,17.17
2023-03-11T12:50:57.623Z,17.14
2023-03-11T12:53:42.899Z,17.16
2023-03-11T12:56:45.169Z,17.03
2023-03-11T12:59:57.173Z,17.17
2023-03-11T13:02:54.894Z,17.19
2023-03-11T13:05:28.516Z,17.25
2023-03-11T13:08:01.012Z,17.21
2023-03-11T13:10:36.205Z,17.27
2023-03-11T13:13:03.481Z,17.29
2023-03-11T13:15:33.598Z,17.16
2023-03-11T13:18:00.790Z,17.30
2023-03-11T13:20:43.365Z,17.29
2023-03-11T13:23:13.256Z,17.35
2023-03-11T13:25:53.873Z,17.34
2023-03-11T13:28:28.375Z,17.49
2023-03-11T13:31:17.146Z,17.51
2023-03-11T13:33:54.605Z,17.50
2023-03-11T13:36:39.508Z,17.52
2023-03-11T13:39:24.892Z,17.22
2023-03-11T13:41:51.735Z,17.46
2023-03-11T13:44:24.728Z,17.61
2023-03-11T13:46:58.668Z,17.32
2023-03-11T13:49:47.247Z,17.66
2023-03-11T13:52:27.450Z,17.66
2023-03-11T13:55:00.456Z,17.70
2023-03-11T13:57:29.953Z,17.70
2023-03-11T13:59:56.851Z,17.76
2023-03-11T14:02:25.571Z,17.60
2023-03-11T14:04:58.372Z,17.61
2023-03-11T14:07:34.606Z,17.74
2023-03-11T14:10:16.722Z,17.69
2023-03-11T14:12:43.559Z,17.70
2023-03-11T14:15:23.678Z,17.69
2023-03-11T14:17:54.037Z,17.40
2023-03-11T14:20:23.961Z,17.32
2023-03-11T14:22:52.386Z,17.47
2023-03-11T14:25:26.961Z,17.39
2023-03-11T14:27:56.065Z,17.44
2023-03-11T14:30:28.231Z,17.53
2023-03-11T14:32:58.025Z,17.53
2023-03-11T14:35:25.045Z,17.15
2023-03-11T14:37:52.736Z,17.49
2023-03-11T14:40:26.094Z,17.49
2023-03-11T14:42:55.077Z,17.46
2023-03-11T14:45:23.319Z,17.47
2023-03-11T14:48:03.695Z,17.44
2023-03-11T14:50:32.918Z,17.29
2023-03-11T14:53:10.294Z,17.28
2023-03-11T14:55:44.588Z,17.46
2023-03-11T14:58:32.865Z,17.46
2023-03-11T15:01:10.573Z,17.32
2023-03-11T15:03:45.582Z,17.21
2023-03-11T15:06:15.287Z,17.45
2023-03-11T15:09:04.803Z,17.40
2023-03-11T15:11:33.061Z,17.43
2023-03-11T15:14:22.337Z,17.40
2023-03-11T15:16:50.909Z,17.41
2023-03-11T15:19:31.642Z,17.43
2023-03-11T15:22:05.878Z,17.43
2023-03-11T15:24:32.907Z,17.45
2023-03-11T15:27:07.605Z,17.44
2023-03-11T15:29:35.040Z,17.31
2023-03-11T15:32:34.452Z,17.46
2023-03-11T15:35:04.932Z,17.35
2023-03-11T15:37:31.946Z,17.47
2023-03-11T15:39:58.933Z,17.35
2023-03-11T15:42:26.604Z,17.26
2023-03-11T15:45:03.427Z,17.46
2023-03-11T15:47:30.688Z,17.45
2023-03-11T15:49:57.457Z,17.38
2023-03-11T15:52:24.367Z,17.42
2023-03-11T15:54:55.721Z,17.40
2023-03-11T15:57:25.361Z,17.17
2023-03-11T15:59:52.471Z,17.40
2023-03-11T16:02:24.076Z,17.18
2023-03-11T16:04:51.140Z,17.33
2023-03-11T16:07:21.796Z,17.17
2023-03-11T16:09:56.226Z,17.29
2023-03-11T16:12:23.758Z,17.23
2023-03-11T16:14:50.888Z,17.26
2023-03-11T16:17:19.169Z,17.10
2023-03-11T16:19:47.996Z,16.94
2023-03-11T16:22:40.612Z,17.19
2023-03-11T16:25:09.000Z,17.17
2023-03-11T16:27:35.886Z,16.64
2023-03-11T16:30:02.970Z,17.16
2023-03-11T16:32:29.767Z,17.17
2023-03-11T16:34:56.549Z,17.12
2023-03-11T16:37:23.386Z,17.13
2023-03-11T16:39:50.131Z,17.05
2023-03-11T16:42:22.252Z,16.51
2023-03-11T16:44:49.191Z,17.07
2023-03-11T16:47:15.967Z,16.47
2023-03-11T16:49:42.732Z,16.91
2023-03-11T16:52:09.619Z,17.01
2023-03-11T16:54:36.508Z,17.05
2023-03-11T16:57:03.378Z,17.04
2023-03-11T16:59:30.299Z,16.79
2023-03-11T17:01:57.303Z,16.71
2023-03-11T17:04:24.099Z,16.99
2023-03-11T17:06:50.922Z,16.96
2023-03-11T17:09:17.811Z,16.79
2023-03-11T17:11:44.618Z,16.83
2023-03-11T17:14:16.685Z,16.83
2023-03-11T17:16:45.277Z,16.80
2023-03-11T17:19:12.205Z,16.98
2023-03-11T17:21:39.485Z,17.02
2023-03-11T17:24:07.329Z,16.90
2023-03-11T17:26:34.298Z,16.97
2023-03-11T17:29:01.290Z,17.02
2023-03-11T17:31:28.303Z,16.91
2023-03-11T17:33:55.305Z,16.86
2023-03-11T17:36:22.110Z,16.75
2023-03-11T17:38:51.350Z,16.98
2023-03-11T17:41:18.393Z,16.79
2023-03-11T17:43:46.129Z,16.95
2023-03-11T17:46:17.307Z,16.64
2023-03-11T17:48:45.060Z,16.87
2023-03-11T17:51:13.805Z,16.77
2023-03-11T17:53:40.999Z,16.65
2023-03-11T17:56:08.120Z,16.51
2023-03-11T17:58:35.145Z,16.79
2023-03-11T18:01:06.354Z,16.61
2023-03-11T18:03:33.476Z,16.65
2023-03-11T18:06:04.657Z,16.58
2023-03-11T18:08:31.820Z,16.27
2023-03-11T18:11:00.582Z,16.16
2023-03-11T18:13:27.440Z,16.68
2023-03-11T18:16:04.635Z,16.47
2023-03-11T18:18:31.798Z,16.59
2023-03-11T18:21:05.778Z,16.60
2023-03-11T18:23:35.707Z,16.37
2023-03-11T18:26:03.785Z,16.37
2023-03-11T18:28:30.668Z,16.54
2023-03-11T18:31:05.293Z,16.28
2023-03-11T18:33:32.162Z,16.25
2023-03-11T18:35:58.981Z,16.54
2023-03-11T18:38:25.778Z,16.27
2023-03-11T18:40:58.825Z,16.53
2023-03-11T18:43:25.603Z,16.46
2023-03-11T18:45:52.374Z,16.53
2023-03-11T18:48:19.383Z,16.52
2023-03-11T18:50:52.181Z,16.26
2023-03-11T18:53:21.161Z,16.32
2023-03-11T18:55:48.957Z,16.44
2023-03-11T18:58:15.720Z,16.33
2023-03-11T19:00:42.590Z,16.26
2023-03-11T19:03:12.658Z,15.93
2023-03-11T19:05:39.474Z,16.40
2023-03-11T19:08:06.369Z,16.45
2023-03-11T19:10:33.201Z,16.44
2023-03-11T19:12:59.947Z,16.38
2023-03-11T19:15:26.740Z,16.26
2023-03-11T19:18:05.830Z,16.41
2023-03-11T19:20:34.064Z,16.07
2023-03-11T19:23:00.921Z,16.38
2023-03-11T19:25:28.114Z,16.21
2023-03-11T19:27:55.510Z,16.34
2023-03-11T19:30:22.681Z,16.39
2023-03-11T19:32:53.049Z,16.39
2023-03-11T19:35:21.396Z,15.90
2023-03-11T19:37:48.785Z,16.29
2023-03-11T19:40:15.819Z,16.16
2023-03-11T19:42:42.750Z,16.42
2023-03-11T19:45:10.024Z,16.36
2023-03-11T19:47:37.329Z,16.21
2023-03-11T19:50:04.451Z,16.32
2023-03-11T19:52:31.219Z,16.02
2023-03-11T19:54:57.980Z,16.27
2023-03-11T19:57:24.961Z,16.35
2023-03-11T19:59:51.698Z,16.13
2023-03-11T20:02:18.556Z,16.34
2023-03-11T20:04:45.450Z,16.35
2023-03-11T20:07:12.234Z,16.18
2023-03-11T20:09:39.036Z,16.33
2023-03-11T20:12:06.140Z,16.32
2023-03-11T20:14:32.886Z,16.15
2023-03-11T20:16:59.641Z,16.32
2023-03-11T20:19:26.691Z,16.30
2023-03-11T20:21:53.523Z,16.29
2023-03-11T20:24:20.407Z,16.24
2023-03-11T20:26:49.951Z,16.37
2023-03-11T20:29:17.884Z,16.33
2023-03-11T20:31:44.827Z,16.10
2023-03-11T20:34:12.726Z,16.32
2023-03-11T20:36:39.519Z,16.19
2023-03-11T20:39:09.437Z,16.26
2023-03-11T20:41:38.315Z,16.18
2023-03-11T20:44:06.469Z,16.01
2023-03-11T20:46:34.105Z,16.29
2023-03-11T20:49:01.763Z,16.35
2023-03-11T20:51:28.689Z,16.34
2023-03-11T20:53:55.458Z,16.33
2023-03-11T20:56:24.182Z,16.33
2023-03-11T20:58:51.368Z,16.31
2023-03-11T21:01:27.255Z,16.05
2023-03-11T21:03:55.040Z,16.15
2023-03-11T21:06:32.862Z,16.20
2023-03-11T21:09:01.081Z,16.28
2023-03-11T21:11:27.902Z,16.15
2023-03-11T21:13:55.082Z,16.23
2023-03-11T21:16:22.178Z,16.30
2023-03-11T21:18:49.670Z,16.33
2023-03-11T21:21:17.254Z,16.33
2023-03-11T21:23:44.335Z,16.17
2023-03-11T21:26:12.674Z,16.22
2023-03-11T21:28:40.291Z,16.02
2023-03-11T21:31:11.184Z,16.28
2023-03-11T21:33:38.794Z,16.19
2023-03-11T21:36:06.680Z,16.11
2023-03-11T21:38:33.992Z,16.09
2023-03-11T21:41:21.088Z,16.30
2023-03-11T21:43:48.357Z,16.24
2023-03-11T21:46:17.334Z,16.00
2023-03-11T21:48:44.313Z,16.02
2023-03-11T21:51:11.129Z,16.22
2023-03-11T21:53:37.953Z,16.00
2023-03-11T21:56:05.558Z,16.12
2023-03-11T21:58:33.011Z,16.16
2023-03-11T22:01:00.160Z,15.87
2023-03-11T22:03:27.510Z,16.07
2023-03-11T22:05:58.988Z,16.05
2023-03-11T22:08:26.286Z,15.79
2023-03-11T22:10:53.217Z,15.96
2023-03-11T22:13:20.297Z,15.88
2023-03-11T22:15:47.287Z,15.77
2023-03-11T22:18:14.394Z,15.80
2023-03-11T22:20:41.364Z,15.98
2023-03-11T22:23:08.326Z,15.95
2023-03-11T22:25:35.071Z,15.85
2023-03-11T22:28:02.143Z,15.62
2023-03-11T22:30:29.015Z,15.86
2023-03-11T22:32:55.974Z,15.66
2023-03-11T22:35:22.869Z,15.71
2023-03-11T22:37:49.732Z,15.64
2023-03-11T22:40:16.516Z,15.62
2023-03-11T22:42:43.427Z,15.71
2023-03-11T22:45:10.645Z,15.46
2023-03-11T22:47:37.512Z,15.71
2023-03-11T22:50:05.101Z,15.64
2023-03-11T22:52:31.850Z,15.47
2023-03-11T22:54:58.676Z,15.65
2023-03-11T22:57:25.569Z,15.16
2023-03-11T22:59:52.442Z,15.61
2023-03-11T23:02:19.215Z,15.61
2023-03-11T23:04:46.140Z,15.45
2023-03-11T23:07:12.899Z,15.56
2023-03-11T23:09:39.717Z,15.36
2023-03-11T23:12:07.293Z,15.30
2023-03-11T23:14:44.424Z,15.51
2023-03-11T23:17:12.500Z,15.26
2023-03-11T23:19:39.335Z,14.95
2023-03-11T23:22:07.077Z,15.35
2023-03-11T23:24:34.288Z,14.78
2023-03-11T23:27:04.920Z,15.30
2023-03-11T23:29:32.110Z,15.24
2023-03-11T23:31:59.011Z,15.13
2023-03-11T23:34:25.757Z,15.29
2023-03-11T23:36:52.469Z,15.23
2023-03-11T23:39:19.309Z,15.18
2023-03-11T23:41:46.589Z,14.71
2023-03-11T23:44:14.491Z,15.07
2023-03-11T23:46:41.306Z,14.97
2023-03-11T23:49:08.136Z,15.16
2023-03-11T23:51:34.999Z,15.16
2023-03-11T23:54:01.904Z,15.23
2023-03-11T23:56:28.671Z,15.23
2023-03-11T23:58:55.486Z,14.91
